sensor_id;sensor_type;location;lat;lon;timestamp;P1;durP1;ratioP1;P2;durP2;ratioP2
9904;SDS011;4991;43.566;27.820;2022-12-18T00:01:25;13.33;;;8.90;;
9904;SDS011;4991;43.566;27.820;2022-12-18T00:03:52;11.93;;;7.27;;
9904;SDS011;4991;43.566;27.820;2022-12-18T00:06:19;10.20;;;7.83;;
9904;SDS011;4991;43.566;27.820;2022-12-18T00:08:47;10.60;;;6.53;;
9904;SDS011;4991;43.566;27.820;2022-12-18T00:11:14;10.20;;;6.77;;
9904;SDS011;4991;43.566;27.820;2022-12-18T00:13:41;6.67;;;5.40;;
9904;SDS011;4991;43.566;27.820;2022-12-18T00:16:08;8.30;;;6.43;;
9904;SDS011;4991;43.566;27.820;2022-12-18T00:18:36;7.63;;;5.57;;
9904;SDS011;4991;43.566;27.820;2022-12-18T00:21:03;7.67;;;5.40;;
9904;SDS011;4991;43.566;27.820;2022-12-18T00:23:31;6.57;;;5.37;;
9904;SDS011;4991;43.566;27.820;2022-12-18T00:26:00;6.83;;;5.00;;
9904;SDS011;4991;43.566;27.820;2022-12-18T00:28:26;7.53;;;5.30;;
9904;SDS011;4991;43.566;27.820;2022-12-18T00:31:05;10.73;;;5.97;;
9904;SDS011;4991;43.566;27.820;2022-12-18T00:33:34;7.40;;;4.97;;
9904;SDS011;4991;43.566;27.820;2022-12-18T00:36:04;7.00;;;4.93;;
9904;SDS011;4991;43.566;27.820;2022-12-18T00:38:32;5.43;;;4.57;;
9904;SDS011;4991;43.566;27.820;2022-12-18T00:40:58;7.43;;;4.93;;
9904;SDS011;4991;43.566;27.820;2022-12-18T00:43:24;7.17;;;4.90;;
9904;SDS011;4991;43.566;27.820;2022-12-18T00:45:49;7.87;;;5.50;;
9904;SDS011;4991;43.566;27.820;2022-12-18T00:48:15;7.50;;;5.30;;
9904;SDS011;4991;43.566;27.820;2022-12-18T00:50:41;7.77;;;5.20;;
9904;SDS011;4991;43.566;27.820;2022-12-18T00:53:09;6.40;;;4.73;;
9904;SDS011;4991;43.566;27.820;2022-12-18T00:55:37;7.77;;;4.77;;
9904;SDS011;4991;43.566;27.820;2022-12-18T00:58:02;7.97;;;4.70;;
9904;SDS011;4991;43.566;27.820;2022-12-18T01:00:28;7.07;;;4.80;;
9904;SDS011;4991;43.566;27.820;2022-12-18T01:02:54;6.67;;;5.20;;
9904;SDS011;4991;43.566;27.820;2022-12-18T01:05:19;7.30;;;5.03;;
9904;SDS011;4991;43.566;27.820;2022-12-18T01:07:45;7.10;;;5.33;;
9904;SDS011;4991;43.566;27.820;2022-12-18T01:10:11;8.50;;;6.00;;
9904;SDS011;4991;43.566;27.820;2022-12-18T01:12:37;6.47;;;5.10;;
9904;SDS011;4991;43.566;27.820;2022-12-18T01:15:04;7.60;;;5.07;;
9904;SDS011;4991;43.566;27.820;2022-12-18T01:17:31;9.90;;;5.80;;
9904;SDS011;4991;43.566;27.820;2022-12-18T01:19:57;7.90;;;5.20;;
9904;SDS011;4991;43.566;27.820;2022-12-18T01:22:23;5.03;;;4.20;;
9904;SDS011;4991;43.566;27.820;2022-12-18T01:24:49;6.93;;;4.70;;
9904;SDS011;4991;43.566;27.820;2022-12-18T01:27:14;5.73;;;4.77;;
9904;SDS011;4991;43.566;27.820;2022-12-18T01:29:40;6.57;;;4.73;;
9904;SDS011;4991;43.566;27.820;2022-12-18T01:32:06;5.90;;;5.10;;
9904;SDS011;4991;43.566;27.820;2022-12-18T01:34:31;6.43;;;4.40;;
9904;SDS011;4991;43.566;27.820;2022-12-18T01:36:57;6.27;;;4.70;;
9904;SDS011;4991;43.566;27.820;2022-12-18T01:39:22;6.63;;;5.33;;
9904;SDS011;4991;43.566;27.820;2022-12-18T01:41:48;8.63;;;5.10;;
9904;SDS011;4991;43.566;27.820;2022-12-18T01:47:22;8.90;;;6.07;;
9904;SDS011;4991;43.566;27.820;2022-12-18T01:49:49;8.80;;;5.77;;
9904;SDS011;4991;43.566;27.820;2022-12-18T01:52:15;7.13;;;5.37;;
9904;SDS011;4991;43.566;27.820;2022-12-18T01:54:43;6.93;;;4.83;;
9904;SDS011;4991;43.566;27.820;2022-12-18T01:57:09;6.40;;;4.33;;
9904;SDS011;4991;43.566;27.820;2022-12-18T01:59:35;5.20;;;4.70;;
9904;SDS011;4991;43.566;27.820;2022-12-18T02:02:02;5.53;;;4.33;;
9904;SDS011;4991;43.566;27.820;2022-12-18T02:04:28;5.30;;;4.20;;
9904;SDS011;4991;43.566;27.820;2022-12-18T02:09:44;6.63;;;4.77;;
9904;SDS011;4991;43.566;27.820;2022-12-18T02:12:18;9.70;;;5.77;;
9904;SDS011;4991;43.566;27.820;2022-12-18T02:14:54;8.33;;;5.90;;
9904;SDS011;4991;43.566;27.820;2022-12-18T02:17:24;8.33;;;5.57;;
9904;SDS011;4991;43.566;27.820;2022-12-18T02:23:09;7.80;;;5.57;;
9904;SDS011;4991;43.566;27.820;2022-12-18T02:28:23;6.93;;;5.80;;
9904;SDS011;4991;43.566;27.820;2022-12-18T02:30:53;7.63;;;5.00;;
9904;SDS011;4991;43.566;27.820;2022-12-18T02:33:24;6.57;;;4.80;;
9904;SDS011;4991;43.566;27.820;2022-12-18T02:35:51;7.43;;;5.63;;
9904;SDS011;4991;43.566;27.820;2022-12-18T02:38:20;7.23;;;5.27;;
9904;SDS011;4991;43.566;27.820;2022-12-18T02:40:46;6.63;;;4.63;;
9904;SDS011;4991;43.566;27.820;2022-12-18T02:43:14;5.33;;;4.20;;
9904;SDS011;4991;43.566;27.820;2022-12-18T02:45:47;8.07;;;4.63;;
9904;SDS011;4991;43.566;27.820;2022-12-18T02:48:15;7.97;;;4.13;;
9904;SDS011;4991;43.566;27.820;2022-12-18T02:50:48;9.10;;;5.50;;
9904;SDS011;4991;43.566;27.820;2022-12-18T02:53:27;6.00;;;4.40;;
9904;SDS011;4991;43.566;27.820;2022-12-18T03:04:03;7.53;;;5.60;;
9904;SDS011;4991;43.566;27.820;2022-12-18T03:06:36;5.57;;;4.77;;
9904;SDS011;4991;43.566;27.820;2022-12-18T03:09:09;8.23;;;5.03;;
9904;SDS011;4991;43.566;27.820;2022-12-18T03:11:38;7.63;;;5.10;;
9904;SDS011;4991;43.566;27.820;2022-12-18T03:14:26;7.93;;;5.47;;
9904;SDS011;4991;43.566;27.820;2022-12-18T03:16:57;8.33;;;6.03;;
9904;SDS011;4991;43.566;27.820;2022-12-18T03:19:27;6.77;;;5.13;;
9904;SDS011;4991;43.566;27.820;2022-12-18T03:21:55;10.37;;;5.60;;
9904;SDS011;4991;43.566;27.820;2022-12-18T03:24:24;7.10;;;5.13;;
9904;SDS011;4991;43.566;27.820;2022-12-18T03:26:54;7.27;;;5.03;;
9904;SDS011;4991;43.566;27.820;2022-12-18T03:32:10;8.30;;;5.40;;
9904;SDS011;4991;43.566;27.820;2022-12-18T03:34:38;7.17;;;5.53;;
9904;SDS011;4991;43.566;27.820;2022-12-18T03:37:06;8.97;;;5.97;;
9904;SDS011;4991;43.566;27.820;2022-12-18T03:39:33;12.13;;;5.87;;
9904;SDS011;4991;43.566;27.820;2022-12-18T03:42:06;9.30;;;6.30;;
9904;SDS011;4991;43.566;27.820;2022-12-18T03:52:22;8.57;;;6.13;;
9904;SDS011;4991;43.566;27.820;2022-12-18T03:54:50;9.27;;;6.07;;
9904;SDS011;4991;43.566;27.820;2022-12-18T03:57:21;10.30;;;6.70;;
9904;SDS011;4991;43.566;27.820;2022-12-18T03:59:51;10.57;;;6.80;;
9904;SDS011;4991;43.566;27.820;2022-12-18T04:02:23;10.00;;;6.17;;
9904;SDS011;4991;43.566;27.820;2022-12-18T04:04:51;12.43;;;7.17;;
9904;SDS011;4991;43.566;27.820;2022-12-18T04:07:19;10.30;;;7.57;;
9904;SDS011;4991;43.566;27.820;2022-12-18T04:09:46;9.50;;;6.47;;
9904;SDS011;4991;43.566;27.820;2022-12-18T04:12:14;9.47;;;7.10;;
9904;SDS011;4991;43.566;27.820;2022-12-18T04:14:40;11.53;;;7.77;;
9904;SDS011;4991;43.566;27.820;2022-12-18T04:17:05;12.67;;;7.70;;
9904;SDS011;4991;43.566;27.820;2022-12-18T04:19:31;10.47;;;7.40;;
9904;SDS011;4991;43.566;27.820;2022-12-18T04:21:56;13.40;;;8.40;;
9904;SDS011;4991;43.566;27.820;2022-12-18T04:24:22;12.43;;;7.47;;
9904;SDS011;4991;43.566;27.820;2022-12-18T04:26:48;14.07;;;7.33;;
9904;SDS011;4991;43.566;27.820;2022-12-18T04:29:13;13.07;;;8.70;;
9904;SDS011;4991;43.566;27.820;2022-12-18T04:31:39;12.00;;;8.27;;
9904;SDS011;4991;43.566;27.820;2022-12-18T04:34:04;13.60;;;8.90;;
9904;SDS011;4991;43.566;27.820;2022-12-18T04:36:30;14.10;;;9.40;;
9904;SDS011;4991;43.566;27.820;2022-12-18T04:38:55;12.33;;;7.83;;
9904;SDS011;4991;43.566;27.820;2022-12-18T04:41:21;13.80;;;9.17;;
9904;SDS011;4991;43.566;27.820;2022-12-18T04:43:47;15.23;;;10.03;;
9904;SDS011;4991;43.566;27.820;2022-12-18T04:46:12;15.57;;;10.10;;
9904;SDS011;4991;43.566;27.820;2022-12-18T04:48:38;14.90;;;9.57;;
9904;SDS011;4991;43.566;27.820;2022-12-18T04:51:04;16.33;;;10.63;;
9904;SDS011;4991;43.566;27.820;2022-12-18T04:53:30;17.20;;;11.07;;
9904;SDS011;4991;43.566;27.820;2022-12-18T04:56:09;16.30;;;10.93;;
9904;SDS011;4991;43.566;27.820;2022-12-18T04:58:37;15.40;;;9.23;;
9904;SDS011;4991;43.566;27.820;2022-12-18T05:01:04;20.43;;;10.80;;
9904;SDS011;4991;43.566;27.820;2022-12-18T05:03:30;14.57;;;9.37;;
9904;SDS011;4991;43.566;27.820;2022-12-18T05:05:56;11.20;;;6.67;;
9904;SDS011;4991;43.566;27.820;2022-12-18T05:08:22;17.50;;;10.67;;
9904;SDS011;4991;43.566;27.820;2022-12-18T05:10:48;14.70;;;9.47;;
9904;SDS011;4991;43.566;27.820;2022-12-18T05:13:13;11.10;;;7.90;;
9904;SDS011;4991;43.566;27.820;2022-12-18T05:15:39;17.70;;;10.10;;
9904;SDS011;4991;43.566;27.820;2022-12-18T05:18:05;20.77;;;11.77;;
9904;SDS011;4991;43.566;27.820;2022-12-18T05:20:31;20.10;;;10.77;;
9904;SDS011;4991;43.566;27.820;2022-12-18T05:22:56;22.43;;;12.70;;
9904;SDS011;4991;43.566;27.820;2022-12-18T05:25:22;20.80;;;11.90;;
9904;SDS011;4991;43.566;27.820;2022-12-18T05:27:48;17.43;;;10.87;;
9904;SDS011;4991;43.566;27.820;2022-12-18T05:30:14;15.97;;;8.53;;
9904;SDS011;4991;43.566;27.820;2022-12-18T05:32:40;19.97;;;11.43;;
9904;SDS011;4991;43.566;27.820;2022-12-18T05:35:07;21.53;;;13.07;;
9904;SDS011;4991;43.566;27.820;2022-12-18T05:37:34;23.00;;;13.17;;
9904;SDS011;4991;43.566;27.820;2022-12-18T05:40:01;24.67;;;14.40;;
9904;SDS011;4991;43.566;27.820;2022-12-18T05:42:27;28.00;;;15.37;;
9904;SDS011;4991;43.566;27.820;2022-12-18T05:44:53;20.70;;;12.70;;
9904;SDS011;4991;43.566;27.820;2022-12-18T05:47:19;20.60;;;11.77;;
9904;SDS011;4991;43.566;27.820;2022-12-18T05:49:44;26.70;;;15.43;;
9904;SDS011;4991;43.566;27.820;2022-12-18T05:52:10;25.53;;;13.77;;
9904;SDS011;4991;43.566;27.820;2022-12-18T05:54:35;23.30;;;14.70;;
9904;SDS011;4991;43.566;27.820;2022-12-18T05:57:01;27.93;;;16.57;;
9904;SDS011;4991;43.566;27.820;2022-12-18T05:59:28;30.27;;;15.57;;
9904;SDS011;4991;43.566;27.820;2022-12-18T06:01:53;26.97;;;16.57;;
9904;SDS011;4991;43.566;27.820;2022-12-18T06:04:19;26.50;;;16.40;;
9904;SDS011;4991;43.566;27.820;2022-12-18T06:06:45;26.47;;;13.97;;
9904;SDS011;4991;43.566;27.820;2022-12-18T06:09:10;33.47;;;17.77;;
9904;SDS011;4991;43.566;27.820;2022-12-18T06:11:37;21.10;;;13.27;;
9904;SDS011;4991;43.566;27.820;2022-12-18T06:14:03;27.43;;;15.90;;
9904;SDS011;4991;43.566;27.820;2022-12-18T06:16:30;32.17;;;16.43;;
9904;SDS011;4991;43.566;27.820;2022-12-18T06:19:00;31.73;;;16.70;;
9904;SDS011;4991;43.566;27.820;2022-12-18T06:21:27;25.90;;;16.07;;
9904;SDS011;4991;43.566;27.820;2022-12-18T06:23:53;27.80;;;14.43;;
9904;SDS011;4991;43.566;27.820;2022-12-18T06:26:20;31.40;;;18.93;;
9904;SDS011;4991;43.566;27.820;2022-12-18T06:28:45;30.47;;;18.37;;
9904;SDS011;4991;43.566;27.820;2022-12-18T06:31:11;21.63;;;13.17;;
9904;SDS011;4991;43.566;27.820;2022-12-18T06:33:37;29.33;;;18.27;;
9904;SDS011;4991;43.566;27.820;2022-12-18T06:36:11;33.50;;;18.07;;
9904;SDS011;4991;43.566;27.820;2022-12-18T06:38:40;33.63;;;17.10;;
9904;SDS011;4991;43.566;27.820;2022-12-18T06:41:07;28.27;;;16.40;;
9904;SDS011;4991;43.566;27.820;2022-12-18T06:43:35;30.97;;;16.13;;
9904;SDS011;4991;43.566;27.820;2022-12-18T06:46:01;31.33;;;17.93;;
9904;SDS011;4991;43.566;27.820;2022-12-18T06:48:28;29.17;;;15.57;;
9904;SDS011;4991;43.566;27.820;2022-12-18T06:50:54;39.17;;;20.80;;
9904;SDS011;4991;43.566;27.820;2022-12-18T06:53:20;30.13;;;15.97;;
9904;SDS011;4991;43.566;27.820;2022-12-18T06:55:46;29.90;;;16.77;;
9904;SDS011;4991;43.566;27.820;2022-12-18T06:58:11;26.53;;;14.53;;
9904;SDS011;4991;43.566;27.820;2022-12-18T07:00:37;34.10;;;18.10;;
9904;SDS011;4991;43.566;27.820;2022-12-18T07:03:02;32.90;;;19.07;;
9904;SDS011;4991;43.566;27.820;2022-12-18T07:05:28;32.97;;;18.73;;
9904;SDS011;4991;43.566;27.820;2022-12-18T07:07:55;40.20;;;21.07;;
9904;SDS011;4991;43.566;27.820;2022-12-18T07:10:20;40.90;;;21.13;;
9904;SDS011;4991;43.566;27.820;2022-12-18T07:12:46;37.27;;;20.73;;
9904;SDS011;4991;43.566;27.820;2022-12-18T07:15:12;39.53;;;20.63;;
9904;SDS011;4991;43.566;27.820;2022-12-18T07:17:37;35.87;;;18.90;;
9904;SDS011;4991;43.566;27.820;2022-12-18T07:20:03;30.30;;;17.57;;
9904;SDS011;4991;43.566;27.820;2022-12-18T07:22:29;31.23;;;16.07;;
9904;SDS011;4991;43.566;27.820;2022-12-18T07:24:54;27.50;;;16.63;;
9904;SDS011;4991;43.566;27.820;2022-12-18T07:27:20;41.93;;;21.50;;
9904;SDS011;4991;43.566;27.820;2022-12-18T07:29:46;42.07;;;23.20;;
9904;SDS011;4991;43.566;27.820;2022-12-18T07:32:13;36.43;;;19.87;;
9904;SDS011;4991;43.566;27.820;2022-12-18T07:34:39;33.23;;;19.30;;
9904;SDS011;4991;43.566;27.820;2022-12-18T07:37:05;39.43;;;21.50;;
9904;SDS011;4991;43.566;27.820;2022-12-18T07:39:31;33.27;;;18.03;;
9904;SDS011;4991;43.566;27.820;2022-12-18T07:41:56;41.87;;;20.57;;
9904;SDS011;4991;43.566;27.820;2022-12-18T07:44:41;40.57;;;20.87;;
9904;SDS011;4991;43.566;27.820;2022-12-18T07:47:06;38.07;;;19.10;;
9904;SDS011;4991;43.566;27.820;2022-12-18T07:49:32;41.20;;;22.80;;
9904;SDS011;4991;43.566;27.820;2022-12-18T07:51:58;32.90;;;18.03;;
9904;SDS011;4991;43.566;27.820;2022-12-18T07:54:25;44.17;;;24.53;;
9904;SDS011;4991;43.566;27.820;2022-12-18T07:56:51;41.43;;;22.70;;
9904;SDS011;4991;43.566;27.820;2022-12-18T07:59:18;35.70;;;20.77;;
9904;SDS011;4991;43.566;27.820;2022-12-18T08:01:44;35.37;;;18.37;;
9904;SDS011;4991;43.566;27.820;2022-12-18T08:04:11;39.80;;;22.57;;
9904;SDS011;4991;43.566;27.820;2022-12-18T08:06:36;46.33;;;23.80;;
9904;SDS011;4991;43.566;27.820;2022-12-18T08:09:02;39.63;;;22.80;;
9904;SDS011;4991;43.566;27.820;2022-12-18T08:11:28;40.20;;;23.37;;
9904;SDS011;4991;43.566;27.820;2022-12-18T08:13:54;41.50;;;21.87;;
9904;SDS011;4991;43.566;27.820;2022-12-18T08:16:21;32.30;;;18.13;;
9904;SDS011;4991;43.566;27.820;2022-12-18T08:18:47;31.23;;;18.63;;
9904;SDS011;4991;43.566;27.820;2022-12-18T08:21:16;31.87;;;19.37;;
9904;SDS011;4991;43.566;27.820;2022-12-18T08:23:43;35.90;;;18.07;;
9904;SDS011;4991;43.566;27.820;2022-12-18T08:26:13;39.37;;;18.43;;
9904;SDS011;4991;43.566;27.820;2022-12-18T08:28:40;30.77;;;16.10;;
9904;SDS011;4991;43.566;27.820;2022-12-18T08:31:07;39.03;;;21.87;;
9904;SDS011;4991;43.566;27.820;2022-12-18T08:33:33;36.53;;;19.97;;
9904;SDS011;4991;43.566;27.820;2022-12-18T08:36:01;33.93;;;20.57;;
9904;SDS011;4991;43.566;27.820;2022-12-18T08:38:28;38.53;;;20.53;;
9904;SDS011;4991;43.566;27.820;2022-12-18T08:41:04;34.33;;;19.63;;
9904;SDS011;4991;43.566;27.820;2022-12-18T08:43:31;38.63;;;20.03;;
9904;SDS011;4991;43.566;27.820;2022-12-18T08:46:15;29.10;;;16.17;;
9904;SDS011;4991;43.566;27.820;2022-12-18T08:48:42;34.73;;;18.67;;
9904;SDS011;4991;43.566;27.820;2022-12-18T08:51:07;31.57;;;18.30;;
9904;SDS011;4991;43.566;27.820;2022-12-18T08:53:35;34.23;;;19.87;;
9904;SDS011;4991;43.566;27.820;2022-12-18T08:56:01;37.87;;;20.30;;
9904;SDS011;4991;43.566;27.820;2022-12-18T08:58:26;34.17;;;19.13;;
9904;SDS011;4991;43.566;27.820;2022-12-18T09:00:52;36.20;;;17.87;;
9904;SDS011;4991;43.566;27.820;2022-12-18T09:03:18;38.07;;;19.57;;
9904;SDS011;4991;43.566;27.820;2022-12-18T09:05:47;36.70;;;21.00;;
9904;SDS011;4991;43.566;27.820;2022-12-18T09:08:13;43.70;;;22.93;;
9904;SDS011;4991;43.566;27.820;2022-12-18T09:10:42;33.23;;;20.87;;
9904;SDS011;4991;43.566;27.820;2022-12-18T09:13:10;40.37;;;22.60;;
9904;SDS011;4991;43.566;27.820;2022-12-18T09:15:46;42.90;;;22.17;;
9904;SDS011;4991;43.566;27.820;2022-12-18T09:18:14;35.53;;;20.63;;
9904;SDS011;4991;43.566;27.820;2022-12-18T09:20:41;39.47;;;22.33;;
9904;SDS011;4991;43.566;27.820;2022-12-18T09:23:07;33.80;;;20.30;;
9904;SDS011;4991;43.566;27.820;2022-12-18T09:25:34;38.30;;;22.50;;
9904;SDS011;4991;43.566;27.820;2022-12-18T09:28:10;32.70;;;20.53;;
9904;SDS011;4991;43.566;27.820;2022-12-18T09:30:49;36.47;;;17.87;;
9904;SDS011;4991;43.566;27.820;2022-12-18T09:33:15;34.70;;;20.20;;
9904;SDS011;4991;43.566;27.820;2022-12-18T09:35:41;42.03;;;23.13;;
9904;SDS011;4991;43.566;27.820;2022-12-18T09:38:27;46.90;;;23.27;;
9904;SDS011;4991;43.566;27.820;2022-12-18T09:40:53;37.07;;;22.20;;
9904;SDS011;4991;43.566;27.820;2022-12-18T09:43:46;43.80;;;21.80;;
9904;SDS011;4991;43.566;27.820;2022-12-18T09:46:16;36.73;;;20.93;;
9904;SDS011;4991;43.566;27.820;2022-12-18T09:48:47;47.80;;;23.13;;
9904;SDS011;4991;43.566;27.820;2022-12-18T09:52:19;37.10;;;21.33;;
9904;SDS011;4991;43.566;27.820;2022-12-18T09:54:34;46.30;;;26.60;;
9904;SDS011;4991;43.566;27.820;2022-12-18T09:57:03;46.43;;;26.70;;
9904;SDS011;4991;43.566;27.820;2022-12-18T09:59:36;43.30;;;24.50;;
9904;SDS011;4991;43.566;27.820;2022-12-18T10:02:15;47.87;;;26.30;;
9904;SDS011;4991;43.566;27.820;2022-12-18T10:04:43;43.60;;;23.73;;
9904;SDS011;4991;43.566;27.820;2022-12-18T10:07:19;43.67;;;24.07;;
9904;SDS011;4991;43.566;27.820;2022-12-18T10:10:02;41.50;;;23.40;;
9904;SDS011;4991;43.566;27.820;2022-12-18T10:13:00;45.47;;;26.50;;
9904;SDS011;4991;43.566;27.820;2022-12-18T10:15:30;44.27;;;25.03;;
9904;SDS011;4991;43.566;27.820;2022-12-18T10:18:02;40.90;;;23.13;;
9904;SDS011;4991;43.566;27.820;2022-12-18T10:20:52;48.40;;;23.73;;
9904;SDS011;4991;43.566;27.820;2022-12-18T10:23:47;44.03;;;24.43;;
9904;SDS011;4991;43.566;27.820;2022-12-18T10:26:26;45.13;;;22.77;;
9904;SDS011;4991;43.566;27.820;2022-12-18T10:28:51;43.30;;;23.83;;
9904;SDS011;4991;43.566;27.820;2022-12-18T10:31:22;47.90;;;26.07;;
9904;SDS011;4991;43.566;27.820;2022-12-18T10:33:49;43.60;;;23.67;;
9904;SDS011;4991;43.566;27.820;2022-12-18T10:36:14;39.17;;;22.80;;
9904;SDS011;4991;43.566;27.820;2022-12-18T10:38:40;35.53;;;20.17;;
9904;SDS011;4991;43.566;27.820;2022-12-18T10:43:44;43.13;;;23.27;;
9904;SDS011;4991;43.566;27.820;2022-12-18T10:46:12;55.13;;;27.13;;
9904;SDS011;4991;43.566;27.820;2022-12-18T10:53:56;52.27;;;26.33;;
9904;SDS011;4991;43.566;27.820;2022-12-18T10:56:26;42.23;;;23.17;;
9904;SDS011;4991;43.566;27.820;2022-12-18T10:59:02;34.43;;;19.83;;
9904;SDS011;4991;43.566;27.820;2022-12-18T11:01:45;38.10;;;19.97;;
9904;SDS011;4991;43.566;27.820;2022-12-18T11:04:40;40.63;;;21.40;;
9904;SDS011;4991;43.566;27.820;2022-12-18T11:07:14;37.23;;;19.77;;
9904;SDS011;4991;43.566;27.820;2022-12-18T11:09:41;42.37;;;23.23;;
9904;SDS011;4991;43.566;27.820;2022-12-18T11:14:52;45.33;;;21.83;;
9904;SDS011;4991;43.566;27.820;2022-12-18T11:17:19;45.37;;;23.03;;
9904;SDS011;4991;43.566;27.820;2022-12-18T11:20:07;38.57;;;21.73;;
9904;SDS011;4991;43.566;27.820;2022-12-18T11:22:59;40.37;;;23.60;;
9904;SDS011;4991;43.566;27.820;2022-12-18T11:25:27;41.73;;;21.87;;
9904;SDS011;4991;43.566;27.820;2022-12-18T11:27:55;46.77;;;24.27;;
9904;SDS011;4991;43.566;27.820;2022-12-18T11:30:50;58.53;;;29.73;;
9904;SDS011;4991;43.566;27.820;2022-12-18T11:36:42;40.20;;;21.87;;
9904;SDS011;4991;43.566;27.820;2022-12-18T11:50:46;20.63;;;13.53;;
9904;SDS011;4991;43.566;27.820;2022-12-18T11:53:02;21.50;;;12.60;;
9904;SDS011;4991;43.566;27.820;2022-12-18T12:07:12;11.57;;;9.07;;
9904;SDS011;4991;43.566;27.820;2022-12-18T12:15:42;20.00;;;9.03;;
9904;SDS011;4991;43.566;27.820;2022-12-18T12:18:36;12.33;;;9.23;;
9904;SDS011;4991;43.566;27.820;2022-12-18T12:21:36;14.60;;;8.67;;
9904;SDS011;4991;43.566;27.820;2022-12-18T12:29:49;10.97;;;8.20;;
9904;SDS011;4991;43.566;27.820;2022-12-18T12:35:09;7.67;;;5.93;;
9904;SDS011;4991;43.566;27.820;2022-12-18T12:41:19;11.47;;;7.70;;
9904;SDS011;4991;43.566;27.820;2022-12-18T12:43:48;15.73;;;9.67;;
9904;SDS011;4991;43.566;27.820;2022-12-18T12:46:16;13.97;;;9.87;;
9904;SDS011;4991;43.566;27.820;2022-12-18T12:48:55;11.73;;;8.10;;
9904;SDS011;4991;43.566;27.820;2022-12-18T12:51:33;13.43;;;9.73;;
9904;SDS011;4991;43.566;27.820;2022-12-18T12:54:06;19.13;;;12.33;;
9904;SDS011;4991;43.566;27.820;2022-12-18T13:02:18;31.43;;;18.03;;
9904;SDS011;4991;43.566;27.820;2022-12-18T13:05:57;21.27;;;13.17;;
9904;SDS011;4991;43.566;27.820;2022-12-18T13:08:30;21.37;;;14.00;;
9904;SDS011;4991;43.566;27.820;2022-12-18T13:10:57;17.20;;;12.57;;
9904;SDS011;4991;43.566;27.820;2022-12-18T13:13:50;15.40;;;10.80;;
9904;SDS011;4991;43.566;27.820;2022-12-18T13:16:21;16.40;;;10.03;;
9904;SDS011;4991;43.566;27.820;2022-12-18T13:18:52;14.30;;;11.53;;
9904;SDS011;4991;43.566;27.820;2022-12-18T13:21:26;12.70;;;9.20;;
9904;SDS011;4991;43.566;27.820;2022-12-18T13:23:53;13.60;;;10.03;;
9904;SDS011;4991;43.566;27.820;2022-12-18T13:28:52;19.50;;;13.33;;
9904;SDS011;4991;43.566;27.820;2022-12-18T13:34:23;14.40;;;10.57;;
9904;SDS011;4991;43.566;27.820;2022-12-18T13:36:51;15.03;;;10.77;;
9904;SDS011;4991;43.566;27.820;2022-12-18T13:41:44;15.00;;;10.90;;
9904;SDS011;4991;43.566;27.820;2022-12-18T13:46:58;20.27;;;11.90;;
9904;SDS011;4991;43.566;27.820;2022-12-18T13:49:39;12.93;;;9.60;;
9904;SDS011;4991;43.566;27.820;2022-12-18T13:52:16;14.30;;;10.33;;
9904;SDS011;4991;43.566;27.820;2022-12-18T13:54:42;18.90;;;12.70;;
9904;SDS011;4991;43.566;27.820;2022-12-18T13:59:54;17.37;;;12.33;;
9904;SDS011;4991;43.566;27.820;2022-12-18T14:02:22;15.63;;;10.83;;
9904;SDS011;4991;43.566;27.820;2022-12-18T14:04:49;21.23;;;14.77;;
9904;SDS011;4991;43.566;27.820;2022-12-18T14:07:17;16.60;;;12.87;;
9904;SDS011;4991;43.566;27.820;2022-12-18T14:09:50;21.67;;;14.03;;
9904;SDS011;4991;43.566;27.820;2022-12-18T14:15:02;22.10;;;15.00;;
9904;SDS011;4991;43.566;27.820;2022-12-18T14:17:30;20.47;;;11.93;;
9904;SDS011;4991;43.566;27.820;2022-12-18T14:19:57;16.60;;;11.30;;
9904;SDS011;4991;43.566;27.820;2022-12-18T14:22:24;20.90;;;11.37;;
9904;SDS011;4991;43.566;27.820;2022-12-18T14:28:13;12.43;;;8.63;;
9904;SDS011;4991;43.566;27.820;2022-12-18T14:30:44;24.00;;;13.80;;
9904;SDS011;4991;43.566;27.820;2022-12-18T14:33:12;25.40;;;14.23;;
9904;SDS011;4991;43.566;27.820;2022-12-18T14:35:40;20.70;;;12.77;;
9904;SDS011;4991;43.566;27.820;2022-12-18T14:38:22;23.77;;;15.23;;
9904;SDS011;4991;43.566;27.820;2022-12-18T14:40:59;25.40;;;16.27;;
9904;SDS011;4991;43.566;27.820;2022-12-18T14:43:28;24.33;;;15.00;;
9904;SDS011;4991;43.566;27.820;2022-12-18T14:45:55;25.57;;;16.83;;
9904;SDS011;4991;43.566;27.820;2022-12-18T14:48:41;28.63;;;17.90;;
9904;SDS011;4991;43.566;27.820;2022-12-18T14:53:56;19.10;;;13.77;;
9904;SDS011;4991;43.566;27.820;2022-12-18T14:56:32;21.60;;;13.57;;
9904;SDS011;4991;43.566;27.820;2022-12-18T15:04:01;28.07;;;15.57;;
9904;SDS011;4991;43.566;27.820;2022-12-18T15:08:55;27.20;;;17.37;;
9904;SDS011;4991;43.566;27.820;2022-12-18T15:14:24;19.63;;;11.03;;
9904;SDS011;4991;43.566;27.820;2022-12-18T15:16:55;25.03;;;15.83;;
9904;SDS011;4991;43.566;27.820;2022-12-18T15:19:31;22.07;;;14.93;;
9904;SDS011;4991;43.566;27.820;2022-12-18T15:22:00;18.83;;;12.57;;
9904;SDS011;4991;43.566;27.820;2022-12-18T15:24:27;22.60;;;14.47;;
9904;SDS011;4991;43.566;27.820;2022-12-18T15:26:56;24.80;;;14.20;;
9904;SDS011;4991;43.566;27.820;2022-12-18T15:29:22;32.93;;;18.77;;
9904;SDS011;4991;43.566;27.820;2022-12-18T15:32:02;30.40;;;17.53;;
9904;SDS011;4991;43.566;27.820;2022-12-18T15:34:31;31.40;;;17.70;;
9904;SDS011;4991;43.566;27.820;2022-12-18T15:36:59;32.17;;;17.33;;
9904;SDS011;4991;43.566;27.820;2022-12-18T15:39:25;39.90;;;22.67;;
9904;SDS011;4991;43.566;27.820;2022-12-18T15:41:50;50.70;;;27.10;;
9904;SDS011;4991;43.566;27.820;2022-12-18T15:44:35;40.30;;;22.73;;
9904;SDS011;4991;43.566;27.820;2022-12-18T15:47:01;43.97;;;22.93;;
9904;SDS011;4991;43.566;27.820;2022-12-18T15:49:27;42.50;;;25.23;;
9904;SDS011;4991;43.566;27.820;2022-12-18T15:51:54;42.30;;;22.40;;
9904;SDS011;4991;43.566;27.820;2022-12-18T15:54:22;35.07;;;19.93;;
9904;SDS011;4991;43.566;27.820;2022-12-18T15:57:09;28.73;;;17.20;;
9904;SDS011;4991;43.566;27.820;2022-12-18T15:59:51;24.07;;;14.73;;
9904;SDS011;4991;43.566;27.820;2022-12-18T16:02:18;35.53;;;19.00;;
9904;SDS011;4991;43.566;27.820;2022-12-18T16:04:45;27.40;;;16.60;;
9904;SDS011;4991;43.566;27.820;2022-12-18T16:07:13;31.33;;;18.63;;
9904;SDS011;4991;43.566;27.820;2022-12-18T16:09:39;26.70;;;16.17;;
9904;SDS011;4991;43.566;27.820;2022-12-18T16:12:06;35.70;;;20.30;;
9904;SDS011;4991;43.566;27.820;2022-12-18T16:14:36;42.90;;;25.30;;
9904;SDS011;4991;43.566;27.820;2022-12-18T16:17:03;50.17;;;29.10;;
9904;SDS011;4991;43.566;27.820;2022-12-18T16:19:31;36.73;;;21.63;;
9904;SDS011;4991;43.566;27.820;2022-12-18T16:21:57;28.37;;;16.47;;
9904;SDS011;4991;43.566;27.820;2022-12-18T16:24:25;30.77;;;18.20;;
9904;SDS011;4991;43.566;27.820;2022-12-18T16:26:51;29.40;;;16.40;;
9904;SDS011;4991;43.566;27.820;2022-12-18T16:29:19;27.83;;;18.30;;
9904;SDS011;4991;43.566;27.820;2022-12-18T16:31:50;32.23;;;17.93;;
9904;SDS011;4991;43.566;27.820;2022-12-18T16:36:50;31.37;;;16.60;;
9904;SDS011;4991;43.566;27.820;2022-12-18T16:39:16;27.87;;;16.10;;
9904;SDS011;4991;43.566;27.820;2022-12-18T16:41:42;30.83;;;15.97;;
9904;SDS011;4991;43.566;27.820;2022-12-18T16:44:08;22.40;;;11.53;;
9904;SDS011;4991;43.566;27.820;2022-12-18T16:46:35;27.67;;;14.43;;
9904;SDS011;4991;43.566;27.820;2022-12-18T16:49:01;31.47;;;15.70;;
9904;SDS011;4991;43.566;27.820;2022-12-18T16:51:27;28.10;;;16.17;;
9904;SDS011;4991;43.566;27.820;2022-12-18T16:53:54;31.23;;;17.33;;
9904;SDS011;4991;43.566;27.820;2022-12-18T16:56:20;30.60;;;16.97;;
9904;SDS011;4991;43.566;27.820;2022-12-18T16:58:51;30.27;;;16.87;;
9904;SDS011;4991;43.566;27.820;2022-12-18T17:01:18;32.10;;;18.17;;